• Join FlightAware (Why Join?)
  • Login
  • US Flag 
05:21AM EST


 

Airport Tracker/Info


-or-


 

Live Flight TrackerFlight Track Log ✈ UPS1337 ✈ 30-May-2014 ✈ KPIE - KRDU

Flight Track Log - Related Links

Times and Time Zones

All times are in EDT time to prevent confusion due to time zone crossing. See the UPS1337 flight status page for this flight to view local times or setup timezone preferences in your user account.

Time Position Orientation Groundspeed Altitude Reporting Facility
EDT Latitude Longitude Course Direction KTS MPH feet Rate Location/Type
09:51PM 27.9000 -82.6833 180° South 171 197 600  Level Tampa TRACON
09:53PM 27.8333 -82.6833 180° South 242 278 3,300 2,880 Climbing Tampa TRACON
09:54PM 27.8933 -82.7728 307° West 252 290 8,700 3,240 Climbing Jacksonville Center
09:55PM 27.9272 -82.7681 North 285 328 10,100 2,040 Climbing Miami Center
09:56PM 28.0106 -82.7428 15° North 311 358 11,800 2,040 Climbing Miami Center
09:57PM 28.1189 -82.7086 16° North 393 452 14,300 2,400 Climbing Miami Center
09:58PM 28.2289 -82.6725 16° North 406 467 16,700 2,400 Climbing Miami Center
09:59PM 28.3444 -82.6361 15° North 422 486 19,200 2,220 Climbing Miami Center
10:04PM 29.0432 -82.6072 North 463 533 30,800 2,040 Climbing FlightAware ADS-B (KMCO)
10:05PM 29.1558 -82.6031 North 456 525 32,700 600 Climbing FlightAware ADS-B (KMCO)
10:08PM 29.4914 -82.5910 North 450 518 33,000 60 Climbing FlightAware ADS-B (KMCO)
10:09PM 29.6605 -82.5848 North 452 520 33,000  Level FlightAware ADS-B (KMCO)
10:10PM 29.7401 -82.5817 North 449 517 33,000  Level FlightAware ADS-B (KMCO)
10:11PM 29.9506 -82.5738 North 461 531 33,000  Level FlightAware ADS-B (KMCO)
10:12PM 30.0399 -82.5704 North 460 529 33,000  Level FlightAware ADS-B (KMCO)
10:13PM 30.1231 -82.5673 North 459 528 33,000  Level FlightAware ADS-B (KMCO)
10:13PM 30.2092 -82.5640 North 465 535 33,000  Level FlightAware ADS-B (KMCO)
10:14PM 30.3480 -82.5587 North 462 532 33,000  Level FlightAware ADS-B (KMCO)
10:16PM 30.5072 -82.5427 12° North 463 533 33,000  Level FlightAware ADS-B (KMCO)
10:16PM 30.5708 -82.5258 12° North 462 532 33,000  Level Jacksonville Center
10:17PM 30.6917 -82.4747 20° North 462 532 33,000  Level Jacksonville Center
10:18PM 30.8128 -82.4233 20° North 456 525 33,000 -60 Level Jacksonville Center
10:19PM 30.9336 -82.3694 21° North 461 531 32,900  Descending Jacksonville Center
10:20PM 31.0525 -82.3156 21° North 461 531 33,000  Climbing Jacksonville Center
10:21PM 31.1733 -82.2636 20° North 461 531 33,000  Level Jacksonville Center
10:27PM 31.8154 -81.9124 27° Northeast 461 531 33,000  Level FlightAware ADS-B
10:28PM 32.0048 -81.7985 27° Northeast 463 533 33,000  Level FlightAware ADS-B
10:30PM 32.2373 -81.6579 27° Northeast 463 533 33,000  Level FlightAware ADS-B
10:31PM 32.2895 -81.6262 27° Northeast 462 532 33,000  Level FlightAware ADS-B
10:32PM 32.3831 -81.5693 27° Northeast 460 529 33,000  Level FlightAware ADS-B
10:32PM 32.4601 -81.5225 27° Northeast 459 528 33,000  Level FlightAware ADS-B
10:33PM 32.5399 -81.4738 27° Northeast 460 529 33,000  Level FlightAware ADS-B
10:34PM 32.6159 -81.4272 28° Northeast 461 531 33,000  Level FlightAware ADS-B
10:34PM 32.6893 -81.3821 28° Northeast 463 533 33,000  Level FlightAware ADS-B
10:35PM 32.7956 -81.3183 28° Northeast 448 516 33,000  Level Jacksonville Center
10:36PM 32.9117 -81.2469 27° Northeast 448 516 33,000 -60 Level Jacksonville Center
10:37PM 33.0233 -81.1806 26° Northeast 448 516 32,900 -60 Descending Jacksonville Center
10:38PM 33.1372 -81.1089 28° Northeast 448 516 32,900  Level Jacksonville Center
10:39PM 33.2508 -81.0372 28° Northeast 448 516 33,000  Climbing Jacksonville Center
10:40PM 33.3628 -80.9703 27° Northeast 448 516 33,000  Level Jacksonville Center
10:41PM 33.4764 -80.8981 28° Northeast 448 516 33,000  Level Jacksonville Center
10:42PM 33.5919 -80.8256 28° Northeast 448 516 33,000  Level Jacksonville Center
10:43PM 33.7014 -80.7556 28° Northeast 443 510 33,000 -240 Level Jacksonville Center
10:44PM 33.8150 -80.6878 26° Northeast 443 510 32,600 -840 Descending Jacksonville Center
10:45PM 33.9244 -80.6175 28° Northeast 443 510 31,400 -1,260 Descending Jacksonville Center
10:46PM 34.0378 -80.5444 28° Northeast 443 510 30,100 -1,380 Descending Jacksonville Center
10:48PM 34.2331 -80.4172 28° Northeast 436 502 27,700 -1,320 Descending Washington Center
10:49PM 34.3442 -80.3481 27° Northeast 441 507 26,500 -1,200 Descending Washington Center
10:50PM 34.4514 -80.2764 29° Northeast 441 507 25,400 -1,200 Descending Washington Center
10:51PM 34.5564 -80.2067 29° Northeast 441 507 24,200 -1,200 Descending Washington Center
10:52PM 34.6611 -80.1419 27° Northeast 428 493 23,100 -600 Descending Washington Center
10:53PM 34.7617 -80.0717 30° Northeast 422 486 23,000 -60 Descending Washington Center
10:54PM 34.8461 -79.9928 37° Northeast 422 486 23,000 -360 Level Washington Center
10:55PM 34.9311 -79.8961 43° Northeast 416 479 22,400 -840 Descending Washington Center
10:56PM 35.0178 -79.8019 42° Northeast 410 472 21,400 -720 Descending Washington Center
10:57PM 35.1003 -79.7097 42° Northeast 404 465 21,000 -240 Descending Washington Center
10:58PM 35.1828 -79.6200 42° Northeast 404 465 21,000 60 Level Washington Center
10:59PM 35.2536 -79.5625 34° Northeast 366 421 21,100 -240 Climbing Washington Center
10:59PM 35.2728 -79.5481 32° Northeast 399 459 20,800 -1,740 Descending Washington Center
10:59PM 35.3025 -79.5292 27° Northeast 337 388 20,000 -2,580 Descending Washington Center
11:00PM 35.3539 -79.4908 31° Northeast 359 413 18,300 -2,340 Descending Washington Center
11:00PM 35.3836 -79.4747 24° Northeast 327 376 17,600 -2,580 Descending Washington Center
11:01PM 35.4392 -79.4339 31° Northeast 323 372 15,700 -2,460 Descending Washington Center
11:02PM 35.4936 -79.3678 45° Northeast 304 350 13,300 -2,640 Descending Washington Center
11:03PM 35.5506 -79.2783 52° Northeast 299 344 10,500 -2,820 Descending Washington Center
11:03PM 35.5617 -79.2586 55° Northeast 297 342 9,900 -2,340 Descending Washington Center
11:04PM 35.5989 -79.1989 53° Northeast 294 338 8,100 -2,280 Descending Washington Center
11:04PM 35.6078 -79.1839 54° Northeast 284 327 7,600 -2,280 Descending Washington Center
11:05PM 35.6383 -79.1317 54° Northeast 281 323 5,900 -2,160 Descending Washington Center
11:05PM 35.6517 -79.1067 57° Northeast 269 310 5,500 -1,260 Descending Washington Center
11:06PM 35.6800 -79.0644 50° Northeast 263 303 4,700 -1,440 Descending Washington Center
11:06PM 35.6889 -79.0469 58° Northeast 233 268 4,200 -1,620 Descending Washington Center
11:07PM 35.7172 -79.0022 52° Northeast 236 272 3,100 -1,380 Descending Washington Center
11:07PM 35.7325 -78.9825 46° Northeast 207 238 2,700 -900 Descending Washington Center
11:08PM 35.7542 -78.9525 48° Northeast 211 243 2,200 -600 Descending Washington Center
11:08PM 35.7672 -78.9353 47° Northeast 173 199 2,100 -180 Descending Washington Center
11:09PM 35.8039 -78.8933 43° Northeast 178 205 2,000 -300 Descending Washington Center
11:10PM 35.8300 -78.8533 51° Northeast 123 142 1,600 -540 Descending Washington Center
11:11PM 35.8514 -78.8286 43° Northeast 123 142 1,000 -660 Descending Washington Center
11:13PM 35.8667 -78.7833 51° Northeast  Level FlightAware Approximate
11:20PM 35.8776 -78.7875 51° Northeast  Level Estimated